createdAt,value
2023-05-24T00:01:10.777Z,8.4
2023-05-24T00:06:48.091Z,8.3
2023-05-24T00:12:39.421Z,8.3
2023-05-24T00:18:16.389Z,8.1
2023-05-24T00:24:09.788Z,8
2023-05-24T00:30:01.923Z,7.9
2023-05-24T00:35:38.309Z,7.9
2023-05-24T00:41:30.253Z,7.9
2023-05-24T00:47:22.285Z,7.8
2023-05-24T00:53:15.293Z,7.8
2023-05-24T00:58:51.958Z,7.7
2023-05-24T01:04:45.231Z,7.6
2023-05-24T01:10:39.701Z,7.6
2023-05-24T01:16:31.485Z,7.5
2023-05-24T01:22:23.152Z,7.4
2023-05-24T01:28:13.748Z,7.4
2023-05-24T01:34:06.574Z,7.4
2023-05-24T01:39:43.227Z,7.3
2023-05-24T01:45:19.150Z,7.3
2023-05-24T01:51:11.005Z,7.2
2023-05-24T01:57:02.563Z,7.1
2023-05-24T02:02:54.857Z,7.1
2023-05-24T02:08:30.424Z,7
2023-05-24T02:14:22.149Z,6.9
2023-05-24T02:20:13.862Z,6.9
2023-05-24T02:25:50.100Z,6.9
2023-05-24T02:31:41.922Z,6.9
2023-05-24T02:37:33.489Z,6.8
2023-05-24T02:43:24.104Z,6.8
2023-05-24T02:49:16.569Z,6.7
2023-05-24T02:54:52.718Z,6.7
2023-05-24T03:00:44.538Z,6.6
2023-05-24T03:06:37.781Z,6.6
2023-05-24T03:12:31.189Z,6.6
2023-05-24T03:18:21.902Z,6.6
2023-05-24T03:24:14.633Z,6.5
2023-05-24T03:30:05.636Z,6.5
2023-05-24T03:35:56.817Z,6.5
2023-05-24T03:41:49.145Z,6.5
2023-05-24T03:47:55.163Z,6.6
2023-05-24T03:53:47.057Z,6.6
2023-05-24T03:59:41.060Z,6.6
2023-05-24T04:05:45.848Z,6.7
2023-05-24T04:11:06.238Z,6.8
2023-05-24T04:16:58.230Z,6.9
2023-05-24T04:22:51.381Z,7.1
2023-05-24T04:28:43.110Z,7.4
2023-05-24T04:34:35.831Z,7.8
2023-05-24T04:40:27.152Z,8.2
2023-05-24T04:46:18.945Z,8.7
2023-05-24T04:52:11.865Z,9.4
2023-05-24T04:58:02.987Z,10.1
2023-05-24T05:03:41.895Z,11.1
2023-05-24T05:09:34.453Z,12.3
2023-05-24T05:15:26.516Z,13.5
2023-05-24T05:21:19.233Z,15
2023-05-24T05:26:56.118Z,16.6
2023-05-24T05:32:32.203Z,18.2
2023-05-24T05:38:11.433Z,20
2023-05-24T05:44:03.923Z,22
2023-05-24T05:49:40.729Z,24.1
2023-05-24T05:55:31.125Z,26.3
2023-05-24T06:01:23.478Z,38.5
2023-05-24T06:07:17.231Z,35.3
2023-05-24T06:13:09.971Z,34.5
2023-05-24T06:19:13.677Z,35
2023-05-24T06:25:04.232Z,43.9
2023-05-24T06:30:55.617Z,44.1
2023-05-24T06:36:55.588Z,44.8
2023-05-24T06:42:46.540Z,45.4
2023-05-24T06:48:38.145Z,46.1
2023-05-24T06:54:30.809Z,46.6
2023-05-24T07:00:24.979Z,47.2
2023-05-24T07:06:17.210Z,47.8
2023-05-24T07:12:09.467Z,48.3
2023-05-24T07:17:45.789Z,48.9
2023-05-24T07:23:38.166Z,49.5
2023-05-24T07:29:32.130Z,50.2
2023-05-24T07:35:06.708Z,50.8
2023-05-24T07:40:45.958Z,51.4
2023-05-24T07:46:38.750Z,52.1
2023-05-24T07:52:14.982Z,51.7
2023-05-24T07:58:06.468Z,47.4
2023-05-24T08:03:59.906Z,47.1
2023-05-24T08:09:35.900Z,48.4
2023-05-24T08:15:27.250Z,49.8
2023-05-24T08:21:05.050Z,51.2
2023-05-24T08:26:59.906Z,52.3
2023-05-24T08:32:53.465Z,53.3
2023-05-24T08:38:44.718Z,54.1
2023-05-24T08:44:32.554Z,54.8
2023-05-24T08:50:27.868Z,55.4
2023-05-24T08:56:20.637Z,56.1
2023-05-24T09:01:56.847Z,56.6
2023-05-24T09:07:04.150Z,57
2023-05-24T09:13:22.566Z,57.6
2023-05-24T09:19:17.017Z,58
2023-05-24T09:24:57.581Z,58.4
2023-05-24T09:30:50.372Z,58.8
2023-05-24T09:36:27.590Z,59.2
2023-05-24T09:42:18.508Z,59.6
2023-05-24T09:47:41.467Z,59.9
2023-05-24T09:53:18.976Z,60.3
2023-05-24T09:59:11.063Z,60.2
2023-05-24T10:05:19.993Z,60.9
2023-05-24T10:11:11.822Z,61.1
2023-05-24T10:16:48.043Z,61.4
2023-05-24T10:46:12.580Z,63
2023-05-24T10:51:52.378Z,63.3
2023-05-24T10:57:07.639Z,63.4
2023-05-24T11:02:51.040Z,63.6
2023-05-24T11:07:57.067Z,63.9
2023-05-24T11:13:03.112Z,64.1
2023-05-24T11:18:27.101Z,64.4
2023-05-24T11:23:48.858Z,64.3
2023-05-24T11:29:24.749Z,64.6
2023-05-24T11:35:22.917Z,64.5
2023-05-24T11:40:53.614Z,64.3
2023-05-24T11:46:30.853Z,64.5
2023-05-24T11:52:18.379Z,64.7
2023-05-24T11:57:55.093Z,64.9
2023-05-24T12:03:35.937Z,65.1
2023-05-24T12:09:14.259Z,65.2
2023-05-24T12:15:03.854Z,65.4
2023-05-24T12:20:59.011Z,65.5
2023-05-24T12:26:38.341Z,65.7
2023-05-24T12:32:15.889Z,65.8
2023-05-24T12:37:53.174Z,65.8
2023-05-24T12:44:03.201Z,65.8
2023-05-24T12:49:39.898Z,65.8
2023-05-24T12:55:15.960Z,65.9
2023-05-24T13:00:53.693Z,65.9
2023-05-24T13:06:15.740Z,65.9
2023-05-24T13:11:37.515Z,64.9
2023-05-24T13:17:14.830Z,65.3
2023-05-24T13:23:06.992Z,64.2
2023-05-24T13:28:27.031Z,63.4
2023-05-24T13:34:33.473Z,61.5
2023-05-24T13:45:32.068Z,55.9
2023-05-24T13:51:06.494Z,50.6
2023-05-24T13:56:29.335Z,46.6
2023-05-24T14:01:54.882Z,43.7
2023-05-24T14:07:46.997Z,40.7
2023-05-24T14:14:20.730Z,38.4
2023-05-24T14:20:05.300Z,36.3
2023-05-24T14:25:26.695Z,35.3
2023-05-24T14:30:47.993Z,35.8
2023-05-24T14:36:09.918Z,35.1
2023-05-24T14:41:48.714Z,35.5
2023-05-24T14:47:25.572Z,35.9
2023-05-24T14:53:01.592Z,36.2
2023-05-24T14:58:38.465Z,36.6
2023-05-24T15:04:18.811Z,36.9
2023-05-24T15:09:54.497Z,37.1
2023-05-24T15:15:31.070Z,37.2
2023-05-24T15:21:08.036Z,37.3
2023-05-24T15:26:44.757Z,37.2
2023-05-24T15:32:24.145Z,37.2
2023-05-24T15:38:02.411Z,37.1
2023-05-24T15:43:37.641Z,37
2023-05-24T15:49:29.975Z,36.9
2023-05-24T15:56:31.750Z,36.8
2023-05-24T16:02:22.346Z,36.6
2023-05-24T16:07:59.478Z,36.4
2023-05-24T16:13:38.588Z,36.1
2023-05-24T16:19:32.406Z,35.9
2023-05-24T16:25:27.167Z,35.6
2023-05-24T16:31:20.396Z,35.4
2023-05-24T16:37:30.564Z,35.2
2023-05-24T16:43:22.225Z,34.9
2023-05-24T16:48:59.230Z,34.8
2023-05-24T16:54:50.550Z,34.6
2023-05-24T17:00:45.041Z,34.5
2023-05-24T17:06:41.487Z,34.3
2023-05-24T17:12:32.258Z,34.1
2023-05-24T17:18:24.495Z,33.9
2023-05-24T17:24:16.066Z,33.7
2023-05-24T17:29:56.193Z,33.4
2023-05-24T17:35:47.978Z,33.2
2023-05-24T17:41:39.917Z,32.9
2023-05-24T17:47:34.859Z,32.7
2023-05-24T17:53:22.986Z,32.4
2023-05-24T17:59:06.504Z,32.2
2023-05-24T18:05:01.884Z,31.9
2023-05-24T18:10:55.084Z,31.6
2023-05-24T18:16:47.126Z,31.3
2023-05-24T18:22:39.328Z,31.1
2023-05-24T18:28:36.524Z,30.9
2023-05-24T18:40:23.525Z,30.3
2023-05-24T18:46:01.239Z,30.1
2023-05-24T18:51:53.725Z,29.9
2023-05-24T18:57:29.757Z,29.6
2023-05-24T19:03:08.919Z,29.4
2023-05-24T19:09:02.538Z,29.2
2023-05-24T19:14:38.486Z,29
2023-05-24T19:20:31.840Z,28.8
2023-05-24T19:26:24.830Z,28.3
2023-05-24T19:32:08.523Z,27.4
2023-05-24T19:37:56.662Z,26.7
2023-05-24T19:43:33.062Z,25.9
2023-05-24T19:49:25.227Z,25
2023-05-24T19:55:03.156Z,24.2
2023-05-24T20:00:39.453Z,23.4
2023-05-24T20:06:18.015Z,22.7
2023-05-24T20:11:54.777Z,22.1
2023-05-24T20:17:16.481Z,21.5
2023-05-24T20:22:52.719Z,20.9
2023-05-24T20:28:42.108Z,20.4
2023-05-24T20:34:18.548Z,19.9
2023-05-24T20:39:55.002Z,19.5
2023-05-24T20:45:31.649Z,19.1
2023-05-24T20:51:10.597Z,18.8
2023-05-24T20:56:47.094Z,18.4
2023-05-24T21:02:26.726Z,18.1
2023-05-24T21:08:04.019Z,17.8
2023-05-24T21:13:25.217Z,17.5
2023-05-24T21:18:47.031Z,17.3
2023-05-24T21:29:43.703Z,16.8
2023-05-24T21:35:20.965Z,16.6
2023-05-24T21:40:56.781Z,16.4
2023-05-24T21:46:33.166Z,16.2
2023-05-24T21:52:25.456Z,16
2023-05-24T21:58:20.597Z,15.8
2023-05-24T22:04:13.216Z,15.6
2023-05-24T22:10:04.833Z,15.4
2023-05-24T22:15:56.184Z,15.3
2023-05-24T22:21:56.215Z,15.1
2023-05-24T22:27:48.299Z,14.9
2023-05-24T22:33:26.802Z,14.7
2023-05-24T22:39:17.869Z,14.4
2023-05-24T22:50:31.178Z,14.1
